createdAt,value
2016-03-16T00:00:10.403Z,955.84
2016-03-16T00:01:10.406Z,955.89
2016-03-16T00:02:10.409Z,955.85
2016-03-16T00:03:10.411Z,955.85
2016-03-16T00:04:10.414Z,955.88
2016-03-16T00:05:10.432Z,955.86
2016-03-16T00:06:10.450Z,955.88
2016-03-16T00:07:10.437Z,955.94
2016-03-16T00:08:10.455Z,955.87
2016-03-16T00:09:10.458Z,955.89
2016-03-16T00:10:10.477Z,955.91
2016-03-16T00:11:10.480Z,955.91
2016-03-16T00:12:10.497Z,955.86
2016-03-16T00:13:10.500Z,955.87
2016-03-16T00:14:10.503Z,955.89
2016-03-16T00:15:10.522Z,955.88
2016-03-16T00:16:10.524Z,955.87
2016-03-16T00:17:10.527Z,955.83
2016-03-16T00:18:10.545Z,955.84
2016-03-16T00:19:10.554Z,955.84
2016-03-16T00:20:10.539Z,955.83
2016-03-16T00:21:10.545Z,955.86
2016-03-16T00:22:10.567Z,955.85
2016-03-16T00:23:10.542Z,955.91
2016-03-16T00:24:10.533Z,955.83
2016-03-16T00:25:10.546Z,955.87
2016-03-16T00:26:10.544Z,955.83
2016-03-16T00:27:10.558Z,955.88
2016-03-16T00:28:10.541Z,955.84
2016-03-16T00:29:10.555Z,955.81
2016-03-16T00:30:10.559Z,955.84
2016-03-16T00:31:10.560Z,955.8
2016-03-16T00:32:10.577Z,955.81
2016-03-16T00:33:10.579Z,955.85
2016-03-16T00:34:10.579Z,955.81
2016-03-16T00:35:10.597Z,955.86
2016-03-16T00:36:10.599Z,955.84
2016-03-16T00:37:10.602Z,955.86
2016-03-16T00:38:10.620Z,955.86
2016-03-16T00:39:10.622Z,955.84
2016-03-16T00:40:10.640Z,955.87
2016-03-16T00:41:10.643Z,955.86
2016-03-16T00:42:10.660Z,955.83
2016-03-16T00:43:10.662Z,955.84
2016-03-16T00:44:10.665Z,955.81
2016-03-16T00:45:10.667Z,955.8
2016-03-16T00:46:10.686Z,955.79
2016-03-16T00:47:10.688Z,955.8
2016-03-16T00:48:10.706Z,955.77
2016-03-16T00:49:10.709Z,955.79
2016-03-16T00:50:10.712Z,955.76
2016-03-16T00:51:10.714Z,955.79
2016-03-16T00:52:10.733Z,955.76
2016-03-16T00:53:10.736Z,955.7
2016-03-16T00:54:10.738Z,955.72
2016-03-16T00:55:10.757Z,955.72
2016-03-16T00:56:10.775Z,955.77
2016-03-16T00:57:10.777Z,955.71
2016-03-16T00:58:10.780Z,955.73
2016-03-16T00:59:10.878Z,955.72
2016-03-16T01:00:10.802Z,955.73
2016-03-16T01:01:10.805Z,955.72
2016-03-16T01:02:10.807Z,955.74
2016-03-16T01:03:10.841Z,955.71
2016-03-16T01:04:10.829Z,955.73
2016-03-16T01:05:10.847Z,955.7
2016-03-16T01:06:10.834Z,955.74
2016-03-16T01:07:10.855Z,955.77
2016-03-16T01:08:10.858Z,955.7
2016-03-16T01:09:10.861Z,955.72
2016-03-16T01:10:10.879Z,955.77
2016-03-16T01:11:10.881Z,955.73
2016-03-16T01:12:10.899Z,955.72
2016-03-16T01:13:10.902Z,955.72
2016-03-16T01:14:10.909Z,955.79
2016-03-16T01:15:10.928Z,955.73
2016-03-16T01:16:10.931Z,955.81
2016-03-16T01:17:10.933Z,955.78
2016-03-16T01:18:10.952Z,955.76
2016-03-16T01:19:10.954Z,955.77
2016-03-16T01:20:10.957Z,955.73
2016-03-16T01:21:10.975Z,955.81
2016-03-16T01:22:10.979Z,955.77
2016-03-16T01:23:10.981Z,955.79
2016-03-16T01:24:11.000Z,955.77
2016-03-16T01:25:11.003Z,955.79
2016-03-16T01:26:11.005Z,955.79
2016-03-16T01:27:11.023Z,955.81
2016-03-16T01:28:11.026Z,955.8
2016-03-16T01:29:11.028Z,955.81
2016-03-16T01:30:11.047Z,955.78
2016-03-16T01:31:11.065Z,955.77
2016-03-16T01:32:11.068Z,955.78
2016-03-16T01:33:11.071Z,955.79
2016-03-16T01:34:11.074Z,955.75
2016-03-16T01:35:11.091Z,955.76
2016-03-16T01:36:11.094Z,955.8
2016-03-16T01:37:11.097Z,955.81
2016-03-16T01:38:11.116Z,955.77
2016-03-16T01:39:11.133Z,955.78
2016-03-16T01:40:11.121Z,955.73
2016-03-16T01:41:11.139Z,955.77
2016-03-16T01:42:11.141Z,955.75
2016-03-16T01:43:11.144Z,955.71
2016-03-16T01:44:11.162Z,955.71
2016-03-16T01:45:11.181Z,955.71
2016-03-16T01:46:11.168Z,955.74
2016-03-16T01:47:11.186Z,955.73
2016-03-16T01:48:11.189Z,955.7
2016-03-16T01:49:11.192Z,955.71
2016-03-16T01:50:11.210Z,955.69
2016-03-16T01:51:11.212Z,955.72
2016-03-16T01:52:11.247Z,955.72
2016-03-16T01:53:11.234Z,955.7
2016-03-16T01:54:11.237Z,955.72
2016-03-16T01:55:11.239Z,955.68
2016-03-16T01:56:11.258Z,955.66
2016-03-16T01:57:11.261Z,955.74
2016-03-16T01:58:11.264Z,955.67
2016-03-16T01:59:11.281Z,955.75
2016-03-16T02:00:11.300Z,955.75
2016-03-16T02:01:11.303Z,955.71
2016-03-16T02:02:11.305Z,955.75
2016-03-16T02:03:11.308Z,955.8
2016-03-16T02:04:11.311Z,955.77
2016-03-16T02:05:11.328Z,955.76
2016-03-16T02:06:11.342Z,955.76
2016-03-16T02:07:11.349Z,955.76
2016-03-16T02:08:11.351Z,955.69
2016-03-16T02:09:11.354Z,955.7
2016-03-16T02:10:11.373Z,955.7
2016-03-16T02:11:11.375Z,955.65
2016-03-16T02:12:11.378Z,955.7
2016-03-16T02:13:11.396Z,955.7
2016-03-16T02:14:11.399Z,955.69
2016-03-16T02:15:11.401Z,955.69
2016-03-16T02:16:11.419Z,955.69
2016-03-16T02:17:11.423Z,955.73
2016-03-16T02:18:11.441Z,955.74
2016-03-16T02:19:11.444Z,955.72
2016-03-16T02:20:11.446Z,955.74
2016-03-16T02:21:11.466Z,955.65
2016-03-16T02:22:11.468Z,955.72
2016-03-16T02:23:11.471Z,955.69
2016-03-16T02:24:11.489Z,955.69
2016-03-16T02:25:11.492Z,955.6
2016-03-16T02:26:11.495Z,955.63
2016-03-16T02:27:11.497Z,955.66
2016-03-16T02:28:11.515Z,955.66
2016-03-16T02:29:11.517Z,955.65
2016-03-16T02:30:11.537Z,955.64
2016-03-16T02:31:11.539Z,955.65
2016-03-16T02:32:11.542Z,955.62
2016-03-16T02:33:11.561Z,955.66
2016-03-16T02:34:11.563Z,955.59
2016-03-16T02:35:11.566Z,955.62
2016-03-16T02:36:11.584Z,955.62
2016-03-16T02:37:11.587Z,955.64
2016-03-16T02:38:11.589Z,955.62
2016-03-16T02:39:11.592Z,955.63
2016-03-16T02:40:11.626Z,955.62
2016-03-16T02:41:11.613Z,955.65
2016-03-16T02:42:11.616Z,955.63
2016-03-16T02:43:11.635Z,955.62
2016-03-16T02:44:11.637Z,955.64
2016-03-16T02:45:11.655Z,955.61
2016-03-16T02:46:11.657Z,955.61
2016-03-16T02:47:11.691Z,955.61
2016-03-16T02:48:11.662Z,955.64
2016-03-16T02:49:11.682Z,955.57
2016-03-16T02:50:11.684Z,955.58
2016-03-16T02:51:11.702Z,955.59
2016-03-16T02:52:11.704Z,955.65
2016-03-16T02:53:11.723Z,955.66
2016-03-16T02:54:11.726Z,955.62
2016-03-16T02:55:11.745Z,955.61
2016-03-16T02:56:11.748Z,955.66
2016-03-16T02:57:11.750Z,955.59
2016-03-16T02:58:11.768Z,955.69
2016-03-16T02:59:11.770Z,955.66
2016-03-16T03:00:11.773Z,955.6
2016-03-16T03:01:11.776Z,955.67
2016-03-16T03:02:11.795Z,955.64
2016-03-16T03:03:11.797Z,955.58
2016-03-16T03:04:11.799Z,955.6
2016-03-16T03:05:11.818Z,955.58
2016-03-16T03:06:11.821Z,955.62
2016-03-16T03:07:11.824Z,955.59
2016-03-16T03:08:11.841Z,955.58
2016-03-16T03:09:11.844Z,955.62
2016-03-16T03:10:11.847Z,955.56
2016-03-16T03:11:11.866Z,955.63
2016-03-16T03:12:11.868Z,955.59
2016-03-16T03:13:11.886Z,955.58
2016-03-16T03:14:11.889Z,955.57
2016-03-16T03:15:11.892Z,955.55
2016-03-16T03:16:11.894Z,955.59
2016-03-16T03:17:11.912Z,955.6
2016-03-16T03:18:11.916Z,955.56
2016-03-16T03:19:11.918Z,955.61
2016-03-16T03:20:11.937Z,955.58
2016-03-16T03:21:11.940Z,955.62
2016-03-16T03:22:11.957Z,955.56
2016-03-16T03:23:11.960Z,955.61
2016-03-16T03:24:11.963Z,955.57
2016-03-16T03:25:11.965Z,955.63
2016-03-16T03:26:11.984Z,955.6
2016-03-16T03:27:12.003Z,955.58
2016-03-16T03:28:12.005Z,955.55
2016-03-16T03:29:12.008Z,955.59
2016-03-16T03:30:12.011Z,955.57
2016-03-16T03:31:12.014Z,955.56
2016-03-16T03:32:12.234Z,955.62
2016-03-16T03:33:12.034Z,955.6
2016-03-16T03:34:12.037Z,955.58
2016-03-16T03:35:12.056Z,955.58
2016-03-16T03:36:12.058Z,955.59
2016-03-16T03:37:12.060Z,955.58
2016-03-16T03:38:12.079Z,955.53
2016-03-16T03:39:12.081Z,955.54
2016-03-16T03:40:12.083Z,955.52
2016-03-16T03:41:12.102Z,955.55
2016-03-16T03:42:12.105Z,955.59
2016-03-16T03:43:12.108Z,955.61
2016-03-16T03:44:12.126Z,955.58
2016-03-16T03:45:12.129Z,955.58
2016-03-16T03:46:12.132Z,955.6
2016-03-16T03:47:12.150Z,955.61
2016-03-16T03:48:12.152Z,955.59
2016-03-16T03:49:12.155Z,955.57
2016-03-16T03:50:12.174Z,955.63
2016-03-16T03:51:12.176Z,955.63
2016-03-16T03:52:12.195Z,955.63
2016-03-16T03:53:12.197Z,955.61
2016-03-16T03:54:12.200Z,955.65
2016-03-16T03:55:12.202Z,955.6
2016-03-16T03:56:12.220Z,955.63
2016-03-16T03:57:12.223Z,955.64
2016-03-16T03:58:12.226Z,955.64
2016-03-16T03:59:12.245Z,955.6
2016-03-16T04:00:12.247Z,955.6
2016-03-16T04:01:12.250Z,955.68
2016-03-16T04:02:12.268Z,955.58
2016-03-16T04:03:12.271Z,955.64
2016-03-16T04:04:12.273Z,955.66
2016-03-16T04:05:12.291Z,955.63
2016-03-16T04:06:12.294Z,955.66
2016-03-16T04:07:12.297Z,955.65
2016-03-16T04:08:12.315Z,955.66
2016-03-16T04:09:12.318Z,955.65
2016-03-16T04:10:12.321Z,955.61
2016-03-16T04:11:12.339Z,955.62
2016-03-16T04:12:12.342Z,955.64
2016-03-16T04:13:12.344Z,955.65
2016-03-16T04:14:12.363Z,955.66
2016-03-16T04:15:12.365Z,955.7
2016-03-16T04:16:12.368Z,955.7
2016-03-16T04:17:12.402Z,955.65
2016-03-16T04:18:12.389Z,955.68
2016-03-16T04:19:12.392Z,955.69
2016-03-16T04:20:12.395Z,955.65
2016-03-16T04:21:12.398Z,955.74
2016-03-16T04:22:12.415Z,955.76
2016-03-16T04:23:12.419Z,955.75
2016-03-16T04:24:12.437Z,955.76
2016-03-16T04:25:12.439Z,955.74
2016-03-16T04:26:12.442Z,955.73
2016-03-16T04:27:12.460Z,955.77
2016-03-16T04:28:12.463Z,955.74
2016-03-16T04:29:12.465Z,955.8
2016-03-16T04:30:12.484Z,955.78
2016-03-16T04:31:12.487Z,955.77
2016-03-16T04:32:12.490Z,955.82
2016-03-16T04:33:12.492Z,955.84
2016-03-16T04:34:12.511Z,955.86
2016-03-16T04:35:12.514Z,955.86
2016-03-16T04:36:12.516Z,955.82
2016-03-16T04:37:12.534Z,955.84
2016-03-16T04:38:12.536Z,955.84
2016-03-16T04:39:12.540Z,955.87
2016-03-16T04:40:12.558Z,955.9
2016-03-16T04:41:12.561Z,955.91
2016-03-16T04:42:12.563Z,955.89
2016-03-16T04:43:12.566Z,955.87
2016-03-16T04:44:12.569Z,955.94
2016-03-16T04:45:12.619Z,955.92
2016-03-16T04:46:12.590Z,955.88
2016-03-16T04:47:12.608Z,955.92
2016-03-16T04:48:12.610Z,955.93
2016-03-16T04:49:12.613Z,955.96
2016-03-16T04:50:12.616Z,955.93
2016-03-16T04:51:12.635Z,955.93
2016-03-16T04:52:12.637Z,955.99
2016-03-16T04:53:12.640Z,955.93
2016-03-16T04:54:12.657Z,955.94
2016-03-16T04:55:12.660Z,955.89
2016-03-16T04:56:12.663Z,955.92
2016-03-16T04:57:12.682Z,955.92
2016-03-16T04:58:12.684Z,955.91
2016-03-16T04:59:12.687Z,956
2016-03-16T05:00:12.690Z,955.97
2016-03-16T05:01:12.692Z,955.99
2016-03-16T05:02:12.711Z,955.98
2016-03-16T05:03:12.714Z,956
2016-03-16T05:04:12.732Z,955.99
2016-03-16T05:05:12.734Z,955.93
2016-03-16T05:06:12.737Z,955.99
2016-03-16T05:07:12.745Z,955.96
2016-03-16T05:08:12.748Z,955.95
2016-03-16T05:09:12.751Z,955.9
2016-03-16T05:10:12.770Z,955.92
2016-03-16T05:11:12.772Z,955.97
2016-03-16T05:12:12.775Z,955.91
2016-03-16T05:13:12.792Z,955.96
2016-03-16T05:14:12.795Z,955.96
2016-03-16T05:15:12.798Z,955.96
2016-03-16T05:16:12.801Z,955.98
2016-03-16T05:17:12.820Z,955.94
2016-03-16T05:18:12.822Z,955.94
2016-03-16T05:19:12.841Z,955.91
2016-03-16T05:20:12.843Z,955.96
2016-03-16T05:22:12.849Z,955.91
2016-03-16T05:23:12.866Z,955.97
2016-03-16T05:24:12.869Z,956.01
2016-03-16T05:25:12.872Z,955.96
2016-03-16T05:26:12.891Z,956.02
2016-03-16T05:27:12.894Z,955.98
2016-03-16T05:28:12.896Z,956.04
2016-03-16T05:29:12.899Z,955.98
2016-03-16T05:30:12.901Z,956.03
2016-03-16T05:31:12.920Z,955.98
2016-03-16T05:32:12.923Z,955.9
2016-03-16T05:33:12.940Z,955.93
2016-03-16T05:34:12.928Z,955.97
2016-03-16T05:35:12.946Z,955.95
2016-03-16T05:36:12.948Z,955.92
2016-03-16T05:37:12.967Z,955.95
2016-03-16T05:38:12.970Z,955.93
2016-03-16T05:39:12.988Z,955.95
2016-03-16T05:40:12.991Z,955.88
2016-03-16T05:41:12.993Z,955.88
2016-03-16T05:42:12.996Z,955.91
2016-03-16T05:43:12.998Z,955.88
2016-03-16T05:44:13.017Z,955.84
2016-03-16T05:45:13.020Z,955.86
2016-03-16T05:46:13.022Z,955.88
2016-03-16T05:47:13.056Z,955.92
2016-03-16T05:48:13.043Z,955.92
2016-03-16T05:49:13.046Z,955.89
2016-03-16T05:50:13.049Z,955.88
2016-03-16T05:51:13.067Z,955.86
2016-03-16T05:52:13.070Z,955.86
2016-03-16T05:53:13.088Z,955.85
2016-03-16T05:54:13.091Z,955.83
2016-03-16T05:55:13.093Z,955.81
2016-03-16T05:56:13.112Z,955.86
2016-03-16T05:57:13.115Z,955.78
2016-03-16T05:58:13.118Z,955.87
2016-03-16T05:59:13.121Z,955.8
2016-03-16T06:00:13.139Z,955.81
2016-03-16T06:01:13.141Z,955.88
2016-03-16T06:02:13.144Z,955.83
2016-03-16T06:03:13.147Z,955.82
2016-03-16T06:04:13.149Z,955.84
2016-03-16T06:05:13.168Z,955.92
2016-03-16T06:06:13.170Z,955.83
2016-03-16T06:07:13.188Z,955.83
2016-03-16T06:08:13.175Z,955.9
2016-03-16T06:09:13.193Z,955.88
2016-03-16T06:10:13.196Z,955.85
2016-03-16T06:11:13.214Z,955.8
2016-03-16T06:12:13.218Z,955.89
2016-03-16T06:13:13.220Z,955.91
2016-03-16T06:14:13.239Z,955.94
2016-03-16T06:15:13.242Z,955.92
2016-03-16T06:16:13.244Z,955.89
2016-03-16T06:17:13.247Z,955.79
2016-03-16T06:18:13.264Z,955.94
2016-03-16T06:19:13.267Z,956
2016-03-16T06:20:13.270Z,955.99
2016-03-16T06:21:13.288Z,955.97
2016-03-16T06:22:13.291Z,956.05
2016-03-16T06:23:13.294Z,956.04
2016-03-16T06:24:13.312Z,955.98
2016-03-16T06:25:13.316Z,955.95
2016-03-16T06:26:13.318Z,955.95
2016-03-16T06:27:13.336Z,955.95
2016-03-16T06:28:13.324Z,955.97
2016-03-16T06:29:13.342Z,955.93
2016-03-16T06:30:13.343Z,955.98
2016-03-16T06:31:13.346Z,956.03
2016-03-16T06:32:13.365Z,956
2016-03-16T06:33:13.368Z,956
2016-03-16T06:34:13.433Z,956.05
2016-03-16T06:35:13.373Z,956.09
2016-03-16T06:36:13.391Z,956.04
2016-03-16T06:37:13.393Z,956.08
2016-03-16T06:38:13.397Z,956.06
2016-03-16T06:39:13.415Z,956.05
2016-03-16T06:40:13.417Z,956.05
2016-03-16T06:41:13.436Z,955.99
2016-03-16T06:42:13.423Z,956.02
2016-03-16T06:43:13.441Z,956.04
2016-03-16T06:44:13.445Z,956.04
2016-03-16T06:45:13.462Z,956.01
2016-03-16T06:46:13.465Z,956
2016-03-16T06:47:13.468Z,956.08
2016-03-16T06:48:13.470Z,956.04
2016-03-16T06:49:13.505Z,956.07
2016-03-16T06:50:13.491Z,955.95
2016-03-16T06:51:13.494Z,956.04
2016-03-16T06:52:13.513Z,956.09
2016-03-16T06:53:13.516Z,956.02
2016-03-16T06:54:13.519Z,956.01
2016-03-16T06:55:13.521Z,956.04
2016-03-16T06:56:13.539Z,956.06
2016-03-16T06:57:13.541Z,956.09
2016-03-16T06:58:13.560Z,956.12
2016-03-16T06:59:13.546Z,956.06
2016-03-16T07:00:13.565Z,956.07
2016-03-16T07:01:13.630Z,956.07
2016-03-16T07:02:13.586Z,956.06
2016-03-16T07:03:13.605Z,956.12
2016-03-16T07:04:13.592Z,956.11
2016-03-16T07:05:13.610Z,956.09
2016-03-16T07:06:13.613Z,956.07
2016-03-16T07:07:13.632Z,956.09
2016-03-16T07:08:13.618Z,956.1
2016-03-16T07:09:13.637Z,955.99
2016-03-16T07:10:13.639Z,956.03
2016-03-16T07:11:13.642Z,956.06
2016-03-16T07:12:13.644Z,956.07
2016-03-16T07:13:13.662Z,956.05
2016-03-16T07:14:13.665Z,956
2016-03-16T07:15:13.667Z,956.09
2016-03-16T07:16:13.686Z,956.09
2016-03-16T07:17:13.705Z,956.06
2016-03-16T07:18:13.708Z,956.02
2016-03-16T07:19:13.711Z,956.02
2016-03-16T07:20:13.713Z,956.01
2016-03-16T07:21:13.716Z,956.02
2016-03-16T07:22:13.733Z,956.03
2016-03-16T07:23:13.752Z,956.04
2016-03-16T07:24:13.739Z,956.03
2016-03-16T07:25:13.758Z,956.15
2016-03-16T07:26:13.761Z,956.16
2016-03-16T07:27:13.779Z,956.1
2016-03-16T07:28:13.766Z,956.18
2016-03-16T07:29:13.800Z,956.03
2016-03-16T07:30:13.802Z,956.05
2016-03-16T07:31:13.789Z,956.03
2016-03-16T07:32:13.807Z,956.05
2016-03-16T07:33:13.810Z,956.14
2016-03-16T07:34:13.829Z,956.11
2016-03-16T07:35:13.815Z,956.04
2016-03-16T07:36:13.834Z,956.08
2016-03-16T07:37:13.837Z,956.03
2016-03-16T07:38:13.855Z,956.02
2016-03-16T07:39:13.858Z,955.98
2016-03-16T07:40:13.876Z,956
2016-03-16T07:41:13.879Z,956.04
2016-03-16T07:42:13.881Z,956.12
2016-03-16T07:43:13.884Z,956.16
2016-03-16T07:44:13.948Z,956.14
2016-03-16T07:45:13.905Z,956.13
2016-03-16T07:46:13.908Z,956.12
2016-03-16T07:47:13.925Z,956.19
2016-03-16T07:48:13.928Z,956.26
2016-03-16T07:49:13.931Z,956.2
2016-03-16T07:50:13.934Z,956.21
2016-03-16T07:51:13.968Z,956.09
2016-03-16T07:52:13.970Z,956.28
2016-03-16T07:53:13.958Z,956.14
2016-03-16T07:54:13.975Z,956.29
2016-03-16T07:55:13.978Z,956.18
2016-03-16T07:56:13.997Z,956.06
2016-03-16T07:57:14.000Z,956.27
2016-03-16T07:58:14.019Z,956.21
2016-03-16T07:59:14.022Z,956.33
2016-03-16T08:00:14.024Z,956.39
2016-03-16T08:01:14.027Z,956.32
2016-03-16T08:02:14.044Z,956.32
2016-03-16T08:03:14.063Z,956.24
2016-03-16T08:04:14.049Z,956.23
2016-03-16T08:05:14.084Z,956.18
2016-03-16T08:06:14.067Z,956.25
2016-03-16T08:07:14.086Z,956.27
2016-03-16T08:08:14.089Z,956.29
2016-03-16T08:09:14.106Z,956.29
2016-03-16T08:10:14.109Z,956.26
2016-03-16T08:11:14.111Z,956.35
2016-03-16T08:12:14.146Z,956.32
2016-03-16T08:13:14.133Z,956.43
2016-03-16T08:14:14.182Z,956.28
2016-03-16T08:15:14.154Z,956.24
2016-03-16T08:16:14.157Z,956.33
2016-03-16T08:17:14.160Z,956.32
2016-03-16T08:18:14.177Z,956.37
2016-03-16T08:19:14.180Z,956.42
2016-03-16T08:20:14.199Z,956.36
2016-03-16T08:21:14.202Z,956.38
2016-03-16T08:22:14.204Z,956.4
2016-03-16T08:23:14.221Z,956.41
2016-03-16T08:24:14.224Z,956.44
2016-03-16T08:25:14.227Z,956.53
2016-03-16T08:26:14.246Z,956.51
2016-03-16T08:27:14.249Z,956.47
2016-03-16T08:28:14.267Z,956.27
2016-03-16T08:29:14.270Z,956.51
2016-03-16T08:30:14.273Z,956.46
2016-03-16T08:31:14.290Z,956.49
2016-03-16T08:32:14.293Z,956.47
2016-03-16T08:33:14.312Z,956.45
2016-03-16T08:34:14.314Z,956.47
2016-03-16T08:35:14.333Z,956.5
2016-03-16T08:36:14.336Z,956.48
2016-03-16T08:37:14.338Z,956.47
2016-03-16T08:38:14.356Z,956.57
2016-03-16T08:39:14.359Z,956.47
2016-03-16T08:40:14.377Z,956.44
2016-03-16T08:41:14.380Z,956.49
2016-03-16T08:42:14.397Z,956.47
2016-03-16T08:43:14.400Z,956.44
2016-03-16T08:44:14.403Z,956.49
2016-03-16T08:45:14.422Z,956.39
2016-03-16T08:46:14.424Z,956.51
2016-03-16T08:47:14.428Z,956.33
2016-03-16T08:48:14.446Z,956.51
2016-03-16T08:49:14.464Z,956.47
2016-03-16T08:50:14.466Z,956.67
2016-03-16T08:51:14.485Z,956.56
2016-03-16T08:52:14.488Z,956.6
2016-03-16T08:53:14.506Z,956.64
2016-03-16T08:54:14.509Z,956.53
2016-03-16T08:55:14.512Z,956.62
2016-03-16T08:56:14.530Z,956.52
2016-03-16T08:57:14.532Z,956.63
2016-03-16T08:58:14.551Z,956.64
2016-03-16T08:59:14.569Z,956.62
2016-03-16T09:00:14.571Z,956.68
2016-03-16T09:01:14.621Z,956.65
2016-03-16T09:02:14.593Z,956.62
2016-03-16T09:03:14.642Z,956.67
2016-03-16T09:04:14.614Z,956.68
2016-03-16T09:05:14.631Z,956.69
2016-03-16T09:06:14.651Z,956.51
2016-03-16T09:07:14.673Z,956.72
2016-03-16T09:08:14.676Z,956.81
2016-03-16T09:09:14.679Z,956.85
2016-03-16T09:10:14.697Z,956.76
2016-03-16T09:11:14.700Z,956.79
2016-03-16T09:12:14.718Z,956.96
2016-03-16T09:13:14.736Z,956.63
2016-03-16T09:14:14.755Z,956.84
2016-03-16T09:15:14.757Z,956.75
2016-03-16T09:16:14.776Z,956.82
2016-03-16T09:17:14.794Z,956.78
2016-03-16T09:18:14.812Z,956.9
2016-03-16T09:19:14.862Z,956.86
2016-03-16T09:20:14.832Z,956.89
2016-03-16T09:21:14.917Z,956.87
2016-03-16T09:22:14.873Z,956.87
2016-03-16T09:23:14.860Z,956.89
2016-03-16T09:24:14.894Z,956.92
2016-03-16T09:25:14.956Z,956.82
2016-03-16T09:26:14.904Z,956.89
2016-03-16T09:27:14.888Z,956.94
2016-03-16T09:28:14.893Z,956.82
2016-03-16T09:29:14.890Z,956.89
2016-03-16T09:30:32.540Z,957.1
2016-03-16T09:31:14.902Z,956.8
2016-03-16T09:32:14.931Z,956.87
2016-03-16T09:33:14.929Z,956.96
2016-03-16T09:34:14.943Z,956.86
2016-03-16T09:35:14.942Z,956.92
2016-03-16T09:36:14.958Z,956.88
2016-03-16T09:37:14.958Z,956.78
2016-03-16T09:38:14.975Z,956.86
2016-03-16T09:39:14.975Z,956.88
2016-03-16T09:40:15.007Z,956.99
2016-03-16T09:41:15.010Z,956.97
2016-03-16T09:42:15.028Z,956.89
2016-03-16T09:43:15.045Z,957.01
2016-03-16T09:44:15.062Z,957
2016-03-16T09:45:15.065Z,956.9
2016-03-16T09:46:15.068Z,957.01
2016-03-16T09:47:15.101Z,957.06
2016-03-16T09:48:15.104Z,957.05
2016-03-16T09:49:15.123Z,957.08
2016-03-16T09:50:15.141Z,956.95
2016-03-16T09:51:15.144Z,956.98
2016-03-16T09:52:15.161Z,957.03
2016-03-16T09:53:15.180Z,956.97
2016-03-16T09:54:15.183Z,956.97
2016-03-16T09:55:15.200Z,957.09
2016-03-16T09:56:15.220Z,957.07
2016-03-16T09:57:15.237Z,957.04
2016-03-16T09:58:15.256Z,957.16
2016-03-16T09:59:15.258Z,957.12
2016-03-16T10:00:15.277Z,957.02
2016-03-16T10:01:15.295Z,956.96
2016-03-16T10:02:15.314Z,957.09
2016-03-16T10:03:15.316Z,957.08
2016-03-16T10:04:15.334Z,957.1
2016-03-16T10:05:15.352Z,957.12
2016-03-16T10:06:15.371Z,957.19
2016-03-16T10:07:15.389Z,957.16
2016-03-16T10:08:15.408Z,957.2
2016-03-16T10:09:15.426Z,957.12
2016-03-16T10:10:15.428Z,957.29
2016-03-16T10:11:15.463Z,957.21
2016-03-16T10:12:15.465Z,957.08
2016-03-16T10:13:15.499Z,957.16
2016-03-16T10:14:15.501Z,957.17
2016-03-16T10:15:15.521Z,957.08
2016-03-16T10:16:15.539Z,957.06
2016-03-16T10:17:15.557Z,957.07
2016-03-16T10:18:15.576Z,957.06
2016-03-16T10:19:15.578Z,957.15
2016-03-16T10:20:15.597Z,957.11
2016-03-16T10:21:15.614Z,956.9
2016-03-16T10:22:15.634Z,957.03
2016-03-16T10:23:15.651Z,957.06
2016-03-16T10:24:15.670Z,957.31
2016-03-16T10:25:15.688Z,957.08
2016-03-16T10:26:15.706Z,957.02
2016-03-16T10:27:15.709Z,956.84
2016-03-16T10:28:15.727Z,957.08
2016-03-16T10:29:15.746Z,957.05
2016-03-16T10:30:15.764Z,957.04
2016-03-16T10:31:15.782Z,957.09
2016-03-16T10:32:15.800Z,957.04
2016-03-16T10:33:15.819Z,957.06
2016-03-16T10:34:15.837Z,957.11
2016-03-16T10:35:15.855Z,957.08
2016-03-16T10:36:15.858Z,957.15
2016-03-16T10:37:15.877Z,957.11
2016-03-16T10:38:15.895Z,957.11
2016-03-16T10:39:15.913Z,957.17
2016-03-16T10:40:15.931Z,957.13
2016-03-16T10:41:15.934Z,957.22
2016-03-16T10:42:15.952Z,957.18
2016-03-16T10:43:15.954Z,957.19
2016-03-16T10:44:15.973Z,957.19
2016-03-16T10:45:15.992Z,957.11
2016-03-16T10:46:16.009Z,957.23
2016-03-16T10:47:16.028Z,957.21
2016-03-16T10:48:16.047Z,957.21
2016-03-16T10:49:16.065Z,957.4
2016-03-16T10:50:16.083Z,957.31
2016-03-16T10:51:16.102Z,957.22
2016-03-16T10:52:16.104Z,957.37
2016-03-16T10:53:16.123Z,957.37
2016-03-16T10:54:16.141Z,957.38
2016-03-16T10:55:16.159Z,957.29
2016-03-16T10:56:16.178Z,957.32
2016-03-16T10:57:16.197Z,957.31
2016-03-16T10:58:16.214Z,957.41
2016-03-16T10:59:16.233Z,957.34
2016-03-16T11:00:16.235Z,957.39
2016-03-16T11:01:16.254Z,957.32
2016-03-16T11:02:16.272Z,957.38
2016-03-16T11:03:16.291Z,957.38
2016-03-16T11:04:16.309Z,957.43
2016-03-16T11:05:16.343Z,957.35
2016-03-16T11:06:16.346Z,957.31
2016-03-16T11:07:16.363Z,957.37
2016-03-16T11:08:16.382Z,957.46
2016-03-16T11:09:16.385Z,957.39
2016-03-16T11:10:16.419Z,957.45
2016-03-16T11:11:16.421Z,957.57
2016-03-16T11:12:16.471Z,957.39
2016-03-16T11:13:16.474Z,957.36
2016-03-16T11:14:16.492Z,957.44
2016-03-16T11:15:16.510Z,957.48
2016-03-16T11:16:16.529Z,957.44
2016-03-16T11:17:16.532Z,957.39
2016-03-16T11:18:16.565Z,957.39
2016-03-16T11:19:16.599Z,957.44
2016-03-16T11:20:16.587Z,957.45
2016-03-16T11:21:16.604Z,957.17
2016-03-16T11:22:16.623Z,957.38
2016-03-16T11:23:16.641Z,957.39
2016-03-16T11:24:16.660Z,957.44
2016-03-16T11:25:16.678Z,957.42
2016-03-16T11:26:16.695Z,957.39
2016-03-16T11:27:16.714Z,957.31
2016-03-16T11:28:16.733Z,957.36
2016-03-16T11:29:16.751Z,957.41
2016-03-16T11:30:16.770Z,957.14
2016-03-16T11:31:16.789Z,957.39
2016-03-16T11:32:16.806Z,957.43
2016-03-16T11:33:16.825Z,957.47
2016-03-16T11:34:16.842Z,957.44
2016-03-16T11:35:16.891Z,957.36
2016-03-16T11:36:16.880Z,957.38
2016-03-16T11:37:16.897Z,957.42
2016-03-16T11:38:16.916Z,957.48
2016-03-16T11:39:16.934Z,957.44
2016-03-16T11:40:16.938Z,957.46
2016-03-16T11:41:16.971Z,957.52
2016-03-16T11:42:16.988Z,957.41
2016-03-16T11:43:17.008Z,957.41
2016-03-16T11:44:17.104Z,957.37
2016-03-16T11:45:17.044Z,957.43
2016-03-16T11:46:17.062Z,957.45
2016-03-16T11:47:17.065Z,957.48
2016-03-16T11:48:17.084Z,957.46
2016-03-16T11:49:17.102Z,957.58
2016-03-16T11:50:17.135Z,957.55
2016-03-16T11:51:17.154Z,957.61
2016-03-16T11:52:17.173Z,957.58
2016-03-16T11:53:17.175Z,957.59
2016-03-16T11:54:17.209Z,957.61
2016-03-16T11:55:17.227Z,957.65
2016-03-16T11:56:17.246Z,957.6
2016-03-16T11:57:17.264Z,957.65
2016-03-16T11:58:17.267Z,957.69
2016-03-16T11:59:17.284Z,957.69
2016-03-16T12:00:17.303Z,957.72
2016-03-16T12:01:17.322Z,957.72
2016-03-16T12:02:17.355Z,957.7
2016-03-16T12:03:17.358Z,957.68
2016-03-16T12:04:17.392Z,957.72
2016-03-16T12:05:17.395Z,957.71
2016-03-16T12:06:17.413Z,957.74
2016-03-16T12:07:17.431Z,957.64
2016-03-16T12:08:17.450Z,957.7
2016-03-16T12:09:17.468Z,957.7
2016-03-16T12:10:17.486Z,957.77
2016-03-16T12:11:17.521Z,957.63
2016-03-16T12:12:17.523Z,957.75
2016-03-16T12:13:17.541Z,957.72
2016-03-16T12:14:17.560Z,957.72
2016-03-16T12:15:17.577Z,957.7
2016-03-16T12:16:17.596Z,957.75
2016-03-16T12:17:17.615Z,957.72
2016-03-16T12:18:17.633Z,957.67
2016-03-16T12:19:17.651Z,957.61
2016-03-16T12:20:17.670Z,957.61
2016-03-16T12:21:17.688Z,957.62
2016-03-16T12:22:17.706Z,957.58
2016-03-16T12:23:17.724Z,957.57
2016-03-16T12:24:17.742Z,957.61
2016-03-16T12:25:17.761Z,957.68
2016-03-16T12:26:17.779Z,957.7
2016-03-16T12:27:17.798Z,957.8
2016-03-16T12:28:17.816Z,957.66
2016-03-16T12:29:17.834Z,957.72
2016-03-16T12:30:17.853Z,957.6
2016-03-16T12:31:17.856Z,957.69
2016-03-16T12:32:17.873Z,957.77